Time;durP1;ratioP1;P1;durP2;ratioP2;P2;SDS_P1;SDS_P2;PMS_P1;PMS_P2;Temp;Humidity;BMP_temperature;BMP_pressure;BME280_temperature;BME280_humidity;BME280_pressure;Samples;Min_cycle;Max_cycle;Signal;HPM_P1;HPM_P2
2022/05/08 00:01:04;;;;;;;10.47;4.87;;;;;;;12.37;78.72;102490.06;5013668;28;20049;-91
2022/05/08 00:03:30;;;;;;;10.00;4.47;;;;;;;12.37;78.73;102489.28;5030010;28;20715;-90
2022/05/08 00:05:55;;;;;;;12.60;5.13;;;;;;;12.38;78.67;102486.34;5012733;28;20033;-91
2022/05/08 00:08:20;;;;;;;9.30;5.13;;;;;;;12.37;78.49;102489.28;5013073;28;20092;-91
2022/05/08 00:10:46;;;;;;;9.53;4.70;;;;;;;12.35;78.88;102496.75;5011372;28;20168;-90
2022/05/08 00:13:14;;;;;;;9.07;4.68;;;;;;;12.33;79.00;102482.69;5011152;28;20026;-91
2022/05/08 00:15:40;;;;;;;11.27;5.10;;;;;;;12.30;78.88;102475.09;5011947;28;20135;-91
2022/05/08 00:18:05;;;;;;;9.88;5.00;;;;;;;12.36;79.31;102484.94;5010873;28;20053;-91
2022/05/08 00:20:31;;;;;;;12.87;5.27;;;;;;;12.34;79.34;102493.22;5010596;28;20030;-90
2022/05/08 00:22:56;;;;;;;11.48;4.78;;;;;;;12.37;78.84;102483.88;5012092;28;20026;-91
2022/05/08 00:25:22;;;;;;;8.50;4.87;;;;;;;12.31;79.66;102474.03;5011853;28;20025;-91
2022/05/08 00:27:47;;;;;;;12.27;5.32;;;;;;;12.31;79.92;102487.47;5011954;28;20030;-91
2022/05/08 00:30:13;;;;;;;7.80;4.67;;;;;;;12.33;79.61;102483.50;5010687;28;20528;-91
2022/05/08 00:32:39;;;;;;;9.63;5.00;;;;;;;12.35;80.05;102489.47;5010068;28;20034;-91
2022/05/08 00:35:05;;;;;;;10.65;5.05;;;;;;;12.33;79.69;102480.00;5010196;28;20034;-92
2022/05/08 00:37:31;;;;;;;9.73;4.70;;;;;;;12.31;80.23;102491.00;5009864;28;20032;-91
2022/05/08 00:39:56;;;;;;;12.57;5.50;;;;;;;12.20;80.37;102476.47;5010709;28;20065;-91
2022/05/08 00:42:27;;;;;;;9.33;4.90;;;;;;;12.22;80.34;102478.94;5011311;28;20485;-91
2022/05/08 00:44:52;;;;;;;7.57;5.35;;;;;;;12.18;80.54;102483.94;5012187;28;20030;-92
2022/05/08 00:47:17;;;;;;;10.13;4.90;;;;;;;12.17;80.65;102482.31;5011717;28;20400;-91
2022/05/08 00:49:43;;;;;;;14.30;5.33;;;;;;;12.18;80.28;102485.78;5009152;28;20049;-93
2022/05/08 00:52:08;;;;;;;11.07;5.30;;;;;;;12.14;80.72;102490.81;5010145;28;20045;-91
2022/05/08 00:54:34;;;;;;;11.13;5.57;;;;;;;12.05;80.56;102490.31;5015564;28;20030;-92
2022/05/08 00:56:59;;;;;;;12.95;5.80;;;;;;;12.03;80.43;102494.28;5011941;28;20042;-92
2022/05/08 00:59:25;;;;;;;10.67;5.50;;;;;;;12.06;80.27;102488.44;5010422;28;20033;-91
2022/05/08 01:01:50;;;;;;;12.07;5.77;;;;;;;12.02;80.67;102492.66;5009283;28;20041;-91
2022/05/08 01:04:16;;;;;;;10.40;5.60;;;;;;;12.08;80.43;102494.41;5012343;28;20309;-91
2022/05/08 01:06:43;;;;;;;11.00;5.60;;;;;;;11.97;80.91;102493.28;5009657;28;20080;-91
2022/05/08 01:09:08;;;;;;;13.90;6.43;;;;;;;11.90;81.11;102493.34;5010002;28;20030;-92
2022/05/08 01:11:35;;;;;;;11.60;6.07;;;;;;;11.84;81.47;102493.44;5050392;22;20056;-91
2022/05/08 01:14:00;;;;;;;13.25;6.57;;;;;;;11.79;81.67;102504.88;5051076;28;20037;-91
2022/05/08 01:16:25;;;;;;;13.77;6.80;;;;;;;11.79;81.91;102492.25;5067883;28;20135;-91
2022/05/08 01:18:51;;;;;;;10.93;6.47;;;;;;;11.84;81.40;102491.59;5071641;28;20113;-92
2022/05/08 01:21:18;;;;;;;12.23;6.77;;;;;;;11.83;81.97;102498.00;5054520;28;20039;-91
2022/05/08 01:23:45;;;;;;;14.75;7.03;;;;;;;11.80;81.98;102498.44;5062728;28;20068;-91
2022/05/08 01:26:11;;;;;;;15.93;6.65;;;;;;;11.79;81.81;102508.34;5070903;28;20074;-91
2022/05/08 01:28:36;;;;;;;14.53;7.80;;;;;;;11.75;81.62;102500.97;5076170;28;20025;-91
2022/05/08 01:31:02;;;;;;;11.87;6.93;;;;;;;11.71;81.97;102497.94;5067200;28;20318;-92
2022/05/08 01:33:27;;;;;;;18.03;8.00;;;;;;;11.63;82.67;102498.22;5070872;28;20036;-91
2022/05/08 01:35:53;;;;;;;12.57;7.33;;;;;;;11.68;82.25;102508.31;5070723;28;20270;-91
2022/05/08 01:38:20;;;;;;;11.77;7.20;;;;;;;11.65;82.55;102509.56;5069677;28;20031;-91
2022/05/08 01:40:46;;;;;;;13.57;7.45;;;;;;;11.61;82.69;102511.03;5068137;28;20029;-91
2022/05/08 01:43:12;;;;;;;14.17;7.23;;;;;;;11.58;82.53;102512.31;5078273;28;20032;-92
2022/05/08 01:45:39;;;;;;;14.18;7.70;;;;;;;11.54;82.57;102521.84;5074633;28;20474;-92
2022/05/08 01:48:23;;;;;;;14.07;7.78;;;;;;;11.56;82.48;102516.28;5071441;28;20446;-92
2022/05/08 01:50:50;;;;;;;17.08;7.15;;;;;;;11.51;82.82;102520.44;5056941;28;20446;-92
2022/05/08 01:53:19;;;;;;;16.05;7.68;;;;;;;11.43;82.79;102519.91;5068147;28;20040;-91
2022/05/08 01:55:49;;;;;;;14.45;7.63;;;;;;;11.45;82.60;102517.84;5069714;28;20467;-90
2022/05/08 01:58:14;;;;;;;16.48;7.70;;;;;;;11.37;83.18;102516.28;5049909;28;20033;-90
2022/05/08 02:00:40;;;;;;;11.43;7.23;;;;;;;11.31;83.09;102520.66;5068431;28;20089;-89
2022/05/08 02:03:05;;;;;;;13.60;7.60;;;;;;;11.27;83.84;102519.47;5066049;28;20025;-88
2022/05/08 02:05:31;;;;;;;17.83;8.00;;;;;;;11.26;83.65;102520.50;5073784;28;20153;-88
2022/05/08 02:08:01;;;;;;;14.15;8.18;;;;;;;11.23;83.84;102525.50;5074005;28;20040;-89
2022/05/08 02:10:27;;;;;;;11.40;7.60;;;;;;;11.16;83.71;102514.78;5071598;28;20040;-90
2022/05/08 02:12:52;;;;;;;13.93;7.97;;;;;;;11.12;84.08;102527.84;5073737;28;20056;-88
2022/05/08 02:15:18;;;;;;;13.13;7.47;;;;;;;11.06;84.54;102526.03;5062310;28;20041;-87
2022/05/08 02:17:44;;;;;;;16.13;7.97;;;;;;;11.08;84.36;102531.19;5072381;28;20033;-88
2022/05/08 02:20:09;;;;;;;20.92;8.30;;;;;;;11.06;84.01;102529.53;5073060;28;20395;-87
2022/05/08 02:22:36;;;;;;;12.47;7.03;;;;;;;11.05;84.37;102525.22;5073656;28;20436;-88
2022/05/08 02:25:03;;;;;;;15.13;7.88;;;;;;;11.08;84.27;102531.19;5071910;28;20031;-88
2022/05/08 02:27:37;;;;;;;14.18;7.50;;;;;;;11.08;84.22;102544.59;5068526;28;20360;-88
2022/05/08 02:30:04;;;;;;;14.65;7.88;;;;;;;11.02;84.05;102533.69;5072298;28;20029;-88
2022/05/08 02:32:29;;;;;;;17.23;8.13;;;;;;;10.91;84.17;102532.53;5070830;28;20450;-88
2022/05/08 02:34:54;;;;;;;21.73;8.20;;;;;;;10.88;84.47;102532.16;5062257;28;20025;-88
2022/05/08 02:37:19;;;;;;;17.80;7.60;;;;;;;10.80;84.68;102532.41;5073173;28;20033;-88
2022/05/08 02:39:45;;;;;;;20.53;8.40;;;;;;;10.86;84.48;102532.38;5071423;28;20025;-88
2022/05/08 02:42:12;;;;;;;12.97;7.90;;;;;;;10.89;84.20;102531.94;5053138;28;20032;-88
2022/05/08 02:44:37;;;;;;;13.73;8.10;;;;;;;10.91;84.35;102539.78;5052349;28;20067;-87
2022/05/08 02:47:03;;;;;;;15.50;8.13;;;;;;;10.88;84.64;102537.53;5060575;28;20458;-88
2022/05/08 02:49:29;;;;;;;19.70;7.95;;;;;;;10.91;nan;102542.47;5054345;28;20035;-88
2022/05/08 02:51:54;;;;;;;17.93;7.67;;;;;;;10.88;84.07;102543.69;5072080;28;20032;-88
2022/05/08 02:54:20;;;;;;;14.97;7.77;;;;;;;10.87;83.61;102538.56;5072488;28;20282;-87
2022/05/08 02:59:29;;;;;;;15.15;7.32;;;;;;;10.82;82.73;102538.38;5071713;28;20036;-88
2022/05/08 03:01:55;;;;;;;16.37;7.00;;;;;;;10.77;82.68;102531.00;5073433;28;20041;-88
2022/05/08 03:04:20;;;;;;;12.93;6.65;;;;;;;10.81;81.54;102534.06;5079132;28;20499;-87
2022/05/08 03:06:45;;;;;;;17.13;7.33;;;;;;;10.72;81.96;102536.19;5072201;28;20051;-87
2022/05/08 03:09:11;;;;;;;15.20;7.23;;;;;;;10.72;81.50;102537.03;5070921;28;20025;-87
2022/05/08 03:11:36;;;;;;;11.77;6.20;;;;;;;10.66;80.62;102543.25;5071809;28;20049;-87
2022/05/08 03:14:01;;;;;;;16.00;6.60;;;;;;;10.57;80.56;102539.19;5072062;28;20017;-87
2022/05/08 03:16:30;;;;;;;19.27;6.57;;;;;;;10.62;80.78;102542.03;5072646;28;20024;-87
2022/05/08 03:18:55;;;;;;;20.47;6.47;;;;;;;10.52;80.86;102547.03;5071080;28;20333;-87
2022/05/08 03:21:22;;;;;;;18.85;6.55;;;;;;;10.51;79.31;102537.34;5069653;28;20028;-86
2022/05/08 03:23:47;;;;;;;16.65;5.25;;;;;;;10.47;79.52;102541.50;5072154;28;20127;-88
2022/05/08 03:26:19;;;;;;;16.47;6.07;;;;;;;10.42;79.94;102542.97;5065675;28;20078;-89
2022/05/08 03:28:47;;;;;;;15.23;6.40;;;;;;;10.41;80.70;102540.50;5059605;28;20395;-89
2022/05/08 03:31:13;;;;;;;11.15;5.95;;;;;;;10.41;79.98;102544.00;5086024;22;20047;-91
2022/05/08 03:33:40;;;;;;;16.38;6.07;;;;;;;10.35;80.05;102536.78;5050380;28;20025;-88
2022/05/08 03:36:07;;;;;;;17.30;6.63;;;;;;;10.35;80.13;102533.28;5052651;28;20111;-90
2022/05/08 03:38:35;;;;;;;17.30;6.32;;;;;;;10.38;79.69;102539.09;5047964;28;20029;-90
2022/05/08 03:41:01;;;;;;;18.07;6.17;;;;;;;10.39;80.65;102537.22;5042477;28;20032;-90
2022/05/08 03:43:27;;;;;;;14.73;5.83;;;;;;;10.32;80.26;102541.78;5015002;28;20291;-90
2022/05/08 03:45:52;;;;;;;14.93;6.00;;;;;;;10.38;80.21;102541.75;5035179;28;20108;-90
2022/05/08 03:48:19;;;;;;;14.17;5.87;;;;;;;10.32;80.29;102542.56;5037329;28;20030;-90
2022/05/08 03:50:44;;;;;;;17.88;5.72;;;;;;;10.25;80.06;102537.25;5038206;28;20031;-90
2022/05/08 03:53:10;;;;;;;20.13;5.63;;;;;;;10.21;79.83;102545.94;5033034;28;20056;-91
2022/05/08 03:55:35;;;;;;;18.20;5.67;;;;;;;10.17;79.58;102540.16;5032102;28;20347;-90
2022/05/08 03:58:01;;;;;;;25.40;6.00;;;;;;;10.11;79.33;102544.53;5026042;28;20037;-91
2022/05/08 04:00:27;;;;;;;18.13;5.57;;;;;;;10.11;79.01;102541.84;5031226;28;20496;-90
2022/05/08 04:02:53;;;;;;;21.10;5.88;;;;;;;9.98;79.26;102537.34;5033532;28;20085;-91
2022/05/08 04:05:18;;;;;;;21.63;5.67;;;;;;;9.93;79.05;102539.88;5033283;28;20073;-90
2022/05/08 04:07:44;;;;;;;20.37;5.57;;;;;;;9.97;79.01;102550.97;5031606;28;20025;-91
2022/05/08 04:10:12;;;;;;;17.55;5.13;;;;;;;9.97;78.91;102550.97;5036105;28;20033;-90
2022/05/08 04:12:38;;;;;;;24.60;5.10;;;;;;;9.99;79.49;102544.34;5041136;28;20595;-92
2022/05/08 04:15:05;;;;;;;24.37;5.10;;;;;;;10.02;78.13;102559.19;5036002;28;20312;-91
2022/05/08 04:17:31;;;;;;;26.17;5.63;;;;;;;9.99;78.96;102560.44;5034193;28;20038;-91
2022/05/08 04:19:57;;;;;;;20.23;4.68;;;;;;;9.94;78.21;102557.59;5038892;28;20017;-91
2022/05/08 04:25:08;;;;;;;22.20;4.43;;;;;;;9.93;78.65;102558.59;5036649;28;20107;-91
2022/05/08 04:27:35;;;;;;;19.40;4.38;;;;;;;9.92;78.12;102564.16;5035251;28;20044;-94
2022/05/08 04:30:01;;;;;;;23.35;4.30;;;;;;;9.87;78.28;102566.63;5042164;28;20083;-94
2022/05/08 04:32:26;;;;;;;18.67;3.83;;;;;;;9.92;78.18;102565.00;5047554;28;20025;-94
2022/05/08 04:34:52;;;;;;;25.83;4.67;;;;;;;9.79;78.30;102563.19;5048317;28;20033;-92
2022/05/08 04:37:17;;;;;;;22.80;3.83;;;;;;;9.84;78.35;102563.38;5054683;28;20033;-95
2022/05/08 04:39:42;;;;;;;19.27;4.50;;;;;;;9.83;77.89;102569.75;5051675;28;20037;-95
2022/05/08 04:42:08;;;;;;;25.87;5.23;;;;;;;9.83;78.47;102567.09;5053344;28;20052;-94
2022/05/08 04:44:33;;;;;;;29.67;4.30;;;;;;;9.83;78.44;102567.09;5047697;28;20041;-90
2022/05/08 04:46:58;;;;;;;27.10;4.85;;;;;;;9.88;78.15;102579.00;5038325;28;20039;-92
2022/05/08 04:49:24;;;;;;;24.83;4.90;;;;;;;9.90;78.08;102579.59;5027208;28;20075;-90
2022/05/08 04:51:49;;;;;;;20.57;4.13;;;;;;;9.90;77.58;102584.97;5030090;28;20063;-88
2022/05/08 04:54:14;;;;;;;28.23;4.73;;;;;;;9.91;78.19;102586.63;5030248;28;20029;-88
2022/05/08 04:56:40;;;;;;;21.37;4.37;;;;;;;9.82;78.50;102581.50;5031648;28;20469;-89
2022/05/08 04:59:05;;;;;;;24.37;4.27;;;;;;;9.85;78.19;102581.09;5030567;28;20021;-89
2022/05/08 05:01:30;;;;;;;21.37;4.30;;;;;;;9.92;78.47;102593.63;5029881;28;20041;-89
2022/05/08 05:03:56;;;;;;;16.95;4.18;;;;;;;9.95;78.07;102587.84;5023523;28;20112;-90
2022/05/08 05:06:21;;;;;;;18.17;4.57;;;;;;;9.94;78.37;102581.69;5028084;28;20088;-90
2022/05/08 05:08:46;;;;;;;15.77;3.80;;;;;;;10.05;77.35;102600.78;5024924;28;20025;-88
2022/05/08 05:11:12;;;;;;;21.97;4.50;;;;;;;9.85;77.73;102596.31;5029484;28;20024;-90
2022/05/08 05:13:38;;;;;;;27.13;4.03;;;;;;;9.85;77.97;102597.16;5029725;28;20464;-89
2022/05/08 05:16:05;;;;;;;21.60;4.10;;;;;;;9.94;77.97;102607.63;5030699;28;20077;-91
2022/05/08 05:18:30;;;;;;;18.27;4.32;;;;;;;9.98;77.90;102609.66;5027668;28;20041;-91
2022/05/08 05:20:55;;;;;;;18.70;4.03;;;;;;;10.01;77.55;102597.72;5029135;28;20183;-93
2022/05/08 05:23:21;;;;;;;28.08;4.57;;;;;;;10.18;77.33;102610.66;5027935;28;20106;-92
2022/05/08 05:25:46;;;;;;;22.40;4.30;;;;;;;10.21;76.46;102624.44;5020480;28;20037;-91
2022/05/08 05:28:11;;;;;;;25.57;3.90;;;;;;;10.14;76.95;102616.44;5015255;28;20033;-90
2022/05/08 05:30:36;;;;;;;17.03;3.43;;;;;;;10.23;76.57;102621.53;5029092;28;20029;-89
2022/05/08 05:33:02;;;;;;;25.73;4.13;;;;;;;10.27;76.45;102615.56;5030902;28;20104;-90
2022/05/08 05:35:27;;;;;;;20.23;4.13;;;;;;;10.34;75.82;102620.06;5024788;28;20029;-91
2022/05/08 05:37:52;;;;;;;25.33;4.25;;;;;;;10.43;75.51;102625.00;5033904;28;20059;-90
2022/05/08 05:40:18;;;;;;;21.13;3.83;;;;;;;10.52;75.04;102632.81;5029296;28;20592;-90
2022/05/08 05:42:43;;;;;;;23.67;4.63;;;;;;;10.55;74.53;102633.19;5027165;28;20045;-94
2022/05/08 05:45:09;;;;;;;12.90;2.70;;;;;;;10.58;72.96;102631.97;5031097;28;20040;-94
2022/05/08 05:50:19;;;;;;;17.60;3.20;;;;;;;10.71;73.64;102639.94;5019416;28;20353;-92
2022/05/08 05:52:45;;;;;;;23.73;3.33;;;;;;;10.78;73.50;102629.19;5148959;22;20677;-95
2022/05/08 05:55:23;;;;;;;23.50;3.85;;;;;;;10.93;72.92;102646.81;5074547;28;20240;-94
2022/05/08 05:57:48;;;;;;;21.88;3.72;;;;;;;10.99;71.57;102652.16;5071468;28;20063;-94
2022/05/08 06:00:16;;;;;;;17.00;3.70;;;;;;;11.00;71.61;102651.13;5051243;28;20109;-94
2022/05/08 06:02:43;;;;;;;21.55;3.33;;;;;;;11.06;70.74;102660.16;5035662;28;20485;-94
2022/05/08 06:05:10;;;;;;;24.63;4.03;;;;;;;11.18;70.67;102668.34;5033637;28;20034;-95
2022/05/08 06:07:36;;;;;;;22.95;3.60;;;;;;;11.26;69.82;102670.78;5045007;28;20022;-94
2022/05/08 06:10:04;;;;;;;21.88;3.75;;;;;;;11.28;69.30;102670.53;5027418;28;20037;-94
2022/05/08 06:12:30;;;;;;;22.40;3.58;;;;;;;11.24;69.25;102670.16;5033893;28;20030;-95
2022/05/08 06:14:55;;;;;;;20.93;3.53;;;;;;;11.36;68.66;102663.03;5037114;28;20037;-96
2022/05/08 06:17:20;;;;;;;19.07;3.37;;;;;;;11.47;67.38;102671.44;5032831;28;20488;-95
2022/05/08 06:19:46;;;;;;;24.20;3.80;;;;;;;11.48;67.61;102667.72;5034549;28;20112;-95
2022/05/08 06:22:11;;;;;;;23.70;3.33;;;;;;;11.57;67.12;102677.13;5035339;28;20104;-95
2022/05/08 06:24:37;;;;;;;22.67;3.10;;;;;;;11.63;67.11;102681.66;5044918;28;20028;-95
2022/05/08 06:27:06;;;;;;;18.00;3.10;;;;;;;11.79;67.59;102674.88;5049520;28;20465;-93
2022/05/08 06:29:34;;;;;;;26.83;3.53;;;;;;;11.89;66.57;102684.31;5038595;28;20349;-93
2022/05/08 06:32:00;;;;;;;20.70;3.20;;;;;;;11.99;65.68;102683.84;5045326;28;20095;-94
2022/05/08 06:34:27;;;;;;;24.58;3.53;;;;;;;11.91;65.17;102677.66;5042050;28;20018;-88
2022/05/08 06:36:53;;;;;;;22.23;3.20;;;;;;;12.02;65.03;102684.19;5027149;28;20413;-88
2022/05/08 06:39:19;;;;;;;21.00;3.38;;;;;;;12.14;63.98;102688.88;5033963;28;20018;-93
2022/05/08 06:41:44;;;;;;;27.73;3.83;;;;;;;12.20;63.71;102694.16;5031408;28;20041;-91
2022/05/08 06:44:10;;;;;;;23.37;3.13;;;;;;;12.33;63.72;102695.06;5032149;28;20492;-91
2022/05/08 06:46:36;;;;;;;24.97;3.50;;;;;;;12.37;63.53;102698.94;5030233;28;20033;-94
2022/05/08 06:49:05;;;;;;;18.75;2.92;;;;;;;12.35;63.11;102692.97;5033342;28;20028;-92
2022/05/08 06:51:31;;;;;;;21.85;3.88;;;;;;;12.40;63.01;102693.13;5037083;28;20025;-96
2022/05/08 06:54:01;;;;;;;17.23;2.83;;;;;;;12.63;62.51;102707.72;5047466;28;20037;-95
2022/05/08 06:56:34;;;;;;;17.38;3.65;;;;;;;12.79;61.81;102703.63;5041008;28;20033;-95
2022/05/08 07:01:44;;;;;;;15.52;2.95;;;;;;;12.96;60.49;102701.13;5053359;28;20040;-93
2022/05/08 07:04:11;;;;;;;17.33;3.50;;;;;;;12.97;61.23;102703.56;5034807;28;20030;-93
2022/05/08 07:06:38;;;;;;;20.48;3.75;;;;;;;12.98;61.28;102707.91;5037140;28;20038;-92
2022/05/08 07:09:04;;;;;;;24.53;3.50;;;;;;;13.16;60.85;102708.91;5044801;28;20159;-88
2022/05/08 07:11:30;;;;;;;21.80;3.30;;;;;;;13.11;59.91;102712.28;5040951;28;20295;-93
2022/05/08 07:13:56;;;;;;;24.08;4.03;;;;;;;13.26;60.18;102703.78;5035597;28;20033;-94
2022/05/08 07:16:21;;;;;;;19.77;3.63;;;;;;;13.38;59.96;102711.09;5037720;28;20021;-91
2022/05/08 07:18:47;;;;;;;23.93;3.73;;;;;;;13.32;59.38;102704.75;5033262;28;20358;-93
2022/05/08 07:21:12;;;;;;;24.40;4.03;;;;;;;13.39;59.93;102702.75;5035896;28;20029;-90
2022/05/08 07:23:37;;;;;;;22.73;3.57;;;;;;;13.67;58.87;102713.97;5035137;28;20112;-92
2022/05/08 07:26:06;;;;;;;20.95;3.47;;;;;;;13.73;58.79;102707.66;5040050;28;20109;-96
2022/05/08 07:28:31;;;;;;;24.73;3.57;;;;;;;13.73;57.50;102713.84;5033145;28;20033;-93
2022/05/08 07:30:57;;;;;;;21.95;3.38;;;;;;;13.69;58.19;102711.84;5037054;28;20029;-89
2022/05/08 07:33:22;;;;;;;17.00;3.10;;;;;;;13.65;58.79;102706.13;5030503;28;20049;-85
2022/05/08 07:38:33;;;;;;;24.42;3.08;;;;;;;13.43;58.45;102708.53;5032287;28;20060;-85
2022/05/08 07:40:59;;;;;;;21.65;3.95;;;;;;;13.38;59.41;102711.88;5032080;28;20580;-86
2022/05/08 07:43:25;;;;;;;18.65;3.53;;;;;;;13.23;59.03;102708.81;5031260;28;20022;-86
2022/05/08 07:45:50;;;;;;;21.23;3.63;;;;;;;13.16;60.25;102728.56;5031008;28;20072;-86
2022/05/08 07:48:16;;;;;;;23.13;3.40;;;;;;;12.91;59.59;102722.50;5030510;28;20712;-88
2022/05/08 07:50:42;;;;;;;16.23;3.10;;;;;;;12.66;60.24;102720.72;5023088;28;20083;-92
2022/05/08 07:53:07;;;;;;;19.40;3.40;;;;;;;12.41;61.17;102732.41;5019564;28;20109;-90
2022/05/08 07:55:32;;;;;;;19.77;4.03;;;;;;;12.16;62.05;102722.53;5032434;28;20033;-90
2022/05/08 07:57:58;;;;;;;18.43;3.63;;;;;;;12.31;62.73;102745.53;5035135;28;20025;-96
2022/05/08 08:00:24;;;;;;;19.27;3.53;;;;;;;12.41;62.22;102737.78;5051833;28;20029;-94
2022/05/08 08:02:49;;;;;;;19.77;3.37;;;;;;;12.50;62.73;102739.13;5034069;28;20034;-89
2022/05/08 08:05:14;;;;;;;19.13;3.70;;;;;;;12.73;62.82;102734.94;5034375;28;20064;-91
2022/05/08 08:07:40;;;;;;;16.80;3.27;;;;;;;12.87;61.14;102733.72;5032811;28;20048;-90
2022/05/08 08:12:43;;;;;;;25.38;3.92;;;;;;;13.14;62.09;102737.91;5528123;22;20061;-92
2022/05/08 08:15:09;;;;;;;19.77;3.97;;;;;;;13.31;61.17;102738.13;5015558;28;20030;-94
2022/05/08 08:17:35;;;;;;;17.20;3.40;;;;;;;13.24;57.77;102738.19;5019257;28;20083;-91
2022/05/08 08:20:00;;;;;;;19.83;3.10;;;;;;;13.27;58.28;102737.72;5012512;28;20443;-90
2022/05/08 08:22:28;;;;;;;18.95;3.35;;;;;;;13.20;58.29;102741.56;5013668;28;20030;-95
2022/05/08 08:24:54;;;;;;;25.40;3.80;;;;;;;13.23;59.37;102743.81;5012707;28;20046;-93
2022/05/08 08:27:19;;;;;;;18.37;3.90;;;;;;;13.33;58.79;102738.66;5014401;28;20320;-92
2022/05/08 08:29:46;;;;;;;14.33;3.70;;;;;;;13.37;57.37;102742.56;5012713;28;20104;-94
2022/05/08 08:32:12;;;;;;;20.75;3.80;;;;;;;13.34;57.89;102737.63;5011609;28;20654;-93
2022/05/08 08:34:38;;;;;;;22.75;3.45;;;;;;;13.37;57.47;102737.16;5011283;28;20582;-90
2022/05/08 08:37:03;;;;;;;19.80;3.63;;;;;;;13.51;57.72;102745.09;5010000;28;20129;-85
2022/05/08 08:39:32;;;;;;;20.67;4.13;;;;;;;13.58;57.78;102726.94;5004262;28;20030;-86
2022/05/08 08:42:12;;;;;;;14.80;3.93;;;;;;;13.69;57.41;102731.56;4998227;28;20422;-90
2022/05/08 08:47:43;;;;;;;21.40;4.40;;;;;;;13.89;58.17;102733.91;5014388;28;20048;-94
2022/05/08 08:50:09;;;;;;;18.60;4.05;;;;;;;14.13;57.29;102730.38;5017651;28;20033;-92
2022/05/08 08:52:36;;;;;;;18.30;4.38;;;;;;;14.13;56.53;102733.06;5015315;28;20044;-92
2022/05/08 08:55:01;;;;;;;17.67;4.00;;;;;;;14.20;56.66;102733.78;5016436;28;20026;-93
2022/05/08 08:57:27;;;;;;;19.57;4.03;;;;;;;14.30;55.94;102730.50;5023942;28;20037;-91
2022/05/08 08:59:52;;;;;;;16.83;3.80;;;;;;;14.51;55.70;102740.66;5020188;28;20056;-94
2022/05/08 09:02:19;;;;;;;23.38;4.35;;;;;;;14.64;54.15;102741.44;5019186;28;20680;-95
2022/05/08 09:04:45;;;;;;;22.50;3.93;;;;;;;14.78;53.23;102742.03;5020135;28;20025;-94
2022/05/08 09:07:49;;;;;;;16.33;3.58;;;;;;;14.75;53.13;102739.81;5022238;28;20026;-95
2022/05/08 09:10:25;;;;;;;13.68;3.60;;;;;;;14.74;53.41;102738.97;5022571;28;20042;-95
2022/05/08 09:12:53;;;;;;;22.92;3.92;;;;;;;14.78;52.34;102750.13;5012460;28;20046;-92
2022/05/08 09:15:36;;;;;;;12.32;3.25;;;;;;;14.92;53.40;102739.84;5012969;28;20044;-95
2022/05/08 09:18:06;;;;;;;15.80;3.28;;;;;;;15.08;52.21;102739.09;5011959;28;20030;-90
2022/05/08 09:20:40;;;;;;;16.70;3.45;;;;;;;15.18;51.60;102740.34;5012843;28;20018;-95
2022/05/08 09:23:11;;;;;;;15.50;3.33;;;;;;;15.27;49.95;102745.13;5005345;28;20045;-96
2022/05/08 09:25:43;;;;;;;16.38;3.22;;;;;;;15.47;50.67;102749.25;5018649;28;20701;-93
2022/05/08 09:28:17;;;;;;;14.87;3.47;;;;;;;15.47;48.73;102746.53;5009960;28;20048;-96
2022/05/08 09:31:08;;;;;;;16.07;2.93;;;;;;;15.56;46.75;102744.25;4993114;28;20304;-92
2022/05/08 09:33:34;;;;;;;15.07;3.08;;;;;;;15.50;46.26;102729.84;5002855;28;20377;-90
2022/05/08 09:36:01;;;;;;;13.90;3.63;;;;;;;15.50;47.62;102735.25;5010946;28;20038;-89
2022/05/08 09:38:47;;;;;;;13.02;3.38;;;;;;;15.79;49.99;102726.25;5009984;28;20033;-88
2022/05/08 09:41:17;;;;;;;16.35;3.28;;;;;;;16.05;46.55;102722.88;5014218;28;20534;-91
2022/05/08 09:43:42;;;;;;;16.45;3.17;;;;;;;16.13;44.43;102718.91;5009682;28;20084;-93
2022/05/08 09:46:20;;;;;;;17.63;3.50;;;;;;;16.18;45.29;102713.59;5165282;22;20053;-89
2022/05/08 09:49:01;;;;;;;19.17;3.40;;;;;;;16.12;45.02;102698.34;5012225;28;20040;-90
2022/05/08 09:51:37;;;;;;;12.07;2.50;;;;;;;16.32;45.97;102726.75;5027185;28;20032;-88
2022/05/08 09:54:02;;;;;;;11.98;3.30;;;;;;;16.45;45.82;102726.34;5030140;28;20473;-89
2022/05/08 09:56:28;;;;;;;18.97;2.90;;;;;;;16.48;45.87;102731.28;5028322;28;20044;-87
2022/05/08 09:58:53;;;;;;;29.52;3.80;;;;;;;16.48;46.28;102736.69;5024237;28;20527;-88
2022/05/08 10:01:19;;;;;;;11.90;3.33;;;;;;;16.42;44.71;102735.00;5029665;28;20026;-88
2022/05/08 10:03:46;;;;;;;13.75;2.90;;;;;;;16.56;45.83;102727.31;5029564;28;20100;-88
2022/05/08 10:06:14;;;;;;;13.80;2.75;;;;;;;16.59;45.70;102724.09;5028824;28;20069;-89
2022/05/08 10:08:41;;;;;;;17.33;3.17;;;;;;;16.50;44.94;102729.13;5029672;28;20053;-89
2022/05/08 10:14:06;;;;;;;13.77;2.90;;;;;;;16.60;45.48;102725.75;5028677;28;20056;-87
2022/05/08 10:17:04;;;;;;;15.40;3.00;;;;;;;16.68;46.49;102712.84;5030595;28;20296;-87
2022/05/08 10:19:32;;;;;;;12.48;3.50;;;;;;;16.63;45.96;102721.69;5022339;28;20025;-88
2022/05/08 10:21:59;;;;;;;19.45;3.33;;;;;;;16.78;45.70;102710.25;5029068;28;20111;-88
2022/05/08 10:24:30;;;;;;;17.90;3.67;;;;;;;17.02;45.56;102710.78;5028881;28;20025;-89
2022/05/08 10:27:19;;;;;;;17.05;3.30;;;;;;;17.01;46.42;102711.84;5014328;28;20088;-88
2022/05/08 10:29:50;;;;;;;14.43;3.17;;;;;;;17.24;46.26;102707.19;5034194;28;20449;-89
2022/05/08 10:32:38;;;;;;;19.40;3.30;;;;;;;17.47;46.17;102713.34;5035077;28;20045;-91
2022/05/08 10:35:06;;;;;;;14.15;3.50;;;;;;;17.49;44.38;102720.16;5022919;28;20095;-88
2022/05/08 10:37:31;;;;;;;18.23;4.15;;;;;;;17.20;44.24;102697.94;5036596;28;20498;-94
2022/05/08 10:39:57;;;;;;;15.40;3.57;;;;;;;17.34;44.69;102706.47;5029619;28;20033;-89
2022/05/08 10:42:33;;;;;;;18.70;3.17;;;;;;;17.47;45.25;102700.59;5031040;28;20136;-91
2022/05/08 10:45:02;;;;;;;10.83;2.40;;;;;;;17.65;44.59;102704.00;5030588;28;20044;-90
2022/05/08 10:47:34;;;;;;;14.37;3.30;;;;;;;17.67;43.85;102691.84;5016074;28;20433;-92
2022/05/08 10:50:05;;;;;;;18.45;3.10;;;;;;;17.75;44.33;102693.25;5031140;28;20029;-90
2022/05/08 10:52:31;;;;;;;14.60;2.85;;;;;;;18.02;43.76;102689.63;5031904;28;20476;-91
2022/05/08 10:55:01;;;;;;;11.77;3.10;;;;;;;17.77;41.55;102684.84;5032827;28;20545;-91
2022/05/08 10:57:37;;;;;;;16.27;3.20;;;;;;;17.75;42.85;102692.41;5032312;28;20037;-90
2022/05/08 11:00:07;;;;;;;14.00;3.05;;;;;;;18.10;43.49;102685.59;5031410;28;20368;-90
2022/05/08 11:02:47;;;;;;;12.48;2.88;;;;;;;18.27;42.10;102686.19;5031981;28;20025;-93
2022/05/08 11:05:16;;;;;;;12.30;2.80;;;;;;;18.18;40.98;102690.50;5037863;28;20488;-96
2022/05/08 11:08:10;;;;;;;9.85;3.05;;;;;;;18.23;41.46;102682.41;5039955;28;20033;-94
2022/05/08 11:10:42;;;;;;;11.67;2.47;;;;;;;18.16;40.37;102679.13;5033738;28;20049;-95
2022/05/08 11:13:12;;;;;;;12.83;2.80;;;;;;;18.38;38.86;102686.25;5031805;28;20442;-96
2022/05/08 11:15:40;;;;;;;8.95;2.40;;;;;;;18.38;39.66;102688.97;5035458;28;20034;-95
2022/05/08 11:18:07;;;;;;;9.18;2.88;;;;;;;18.41;39.52;102686.53;5039508;28;20025;-95
2022/05/08 11:20:38;;;;;;;8.02;2.42;;;;;;;18.41;39.31;102683.81;5041157;28;20048;-96
2022/05/08 11:23:04;;;;;;;13.23;2.58;;;;;;;18.49;39.94;102685.19;5045996;28;20563;-95
2022/05/08 11:25:31;;;;;;;8.32;2.60;;;;;;;18.71;39.19;102684.19;5034363;28;20040;-95
2022/05/08 11:27:58;;;;;;;6.10;2.42;;;;;;;18.87;38.12;102676.91;5034622;28;20032;-96
2022/05/08 11:30:27;;;;;;;9.57;2.38;;;;;;;18.79;38.71;102677.41;5033558;28;20416;-96
2022/05/08 11:38:23;;;;;;;10.07;2.57;;;;;;;18.96;39.36;102679.91;5034254;28;20275;-94
2022/05/08 11:40:50;;;;;;;10.00;2.80;;;;;;;19.14;38.51;102668.53;5033485;28;20049;-94
2022/05/08 11:43:42;;;;;;;7.30;2.67;;;;;;;19.16;38.38;102674.50;5080429;22;20570;-93
2022/05/08 11:46:08;;;;;;;7.53;2.92;;;;;;;19.32;37.91;102669.06;5051563;28;20029;-94
2022/05/08 11:48:40;;;;;;;10.88;2.70;;;;;;;19.55;37.48;102666.84;5052085;28;20032;-94